Data for 05/10/2018

Time Sea-Level Adjusted Pressure Absolute Pressure Temperature Relative Humidity Dew Point   
(mb) (inHg) (mb) (inHg) (C) (F) (%) (C) (F)
00:05 1016 30 846 24.98 11.1 52 86 8.9 48
00:10 1016 30 846 24.98 11.2 52.1 85 8.8 47.9
00:15 1016 30 846 24.98 11.1 52 86 8.9 48
00:20 1016 30 846 24.98 11.1 51.9 86 8.8 47.9
00:25 1016 30 846 24.98 11 51.7 86 8.7 47.6
00:30 1016 30 846 24.98 11 51.8 86 8.8 47.8
00:35 1016 30 846 24.98 11.1 51.9 86 8.8 47.9
00:40 1017 30.03 846 24.98 11.1 51.9 86 8.9 48
00:45 1017 30.03 846 24.98 11 51.8 88 9 48.3
00:50 1017 30.03 846 24.98 11 51.9 88 9.1 48.4
00:55 1017 30.03 846 24.98 11 51.8 88 9.1 48.5
01:00 1017 30.03 846 24.98 11 51.8 88 9.2 48.5
01:05 1017 30.03 846 24.98 10.9 51.7 89 9.1 48.4
01:10 1017 30.03 846 24.98 10.9 51.6 89 9.1 48.4
01:15 1017 30.03 846 24.98 10.7 51.2 87 8.6 47.6
01:20 1017 30.03 846 24.98 10.1 50.3 88 8.2 46.8
01:25 1017 30.03 846 24.98 9.7 49.5 88 7.8 46.1
01:30 1017 30.03 846 24.98 9.5 49.1 87 7.4 45.4
01:35 1017 30.03 846 24.98 9.4 48.8 87 7.4 45.2
01:40 1017 30.03 846 24.98 9.3 48.7 88 7.3 45.2
01:45 1017 30.03 846 24.98 9.2 48.5 88 7.3 45.1
01:50 1017 30.03 846 24.98 9.1 48.3 87 7.1 44.8
01:55 1017 30.03 846 24.98 9 48.2 87 7.1 44.7
02:00 1017 30.03 846 24.98 9 48.2 87 7 44.5
02:05 1017 30.03 846 24.98 8.9 48.1 86 6.8 44.2
02:10 1017 30.03 846 24.98 8.9 48.1 84 6.3 43.4
02:15 1017 30.03 846 24.98 9 48.2 83 6.3 43.4
02:20 1017 30.03 847 25.01 9 48.2 84 6.4 43.5
02:25 1017 30.03 847 25.01 9 48.2 85 6.5 43.8
02:30 1017 30.03 847 25.01 9 48.1 85 6.7 44
02:35 1017 30.03 847 25.01 9 48.1 85 6.6 43.9
02:40 1017 30.03 847 25.01 8.9 48.1 85 6.6 43.9
02:45 1017 30.03 847 25.01 8.9 48 86 6.6 44
02:50 1017 30.03 847 25.01 8.9 48 86 6.7 44.1
02:55 1017 30.03 847 25.01 8.8 47.9 86 6.6 43.8
03:00 1017 30.03 847 25.01 8.8 47.9 85 6.5 43.7
03:05 1017 30.03 847 25.01 8.8 47.9 85 6.5 43.6
03:10 1018 30.06 847 25.01 8.9 48 85 6.5 43.6
03:15 1018 30.06 847 25.01 8.9 48 85 6.5 43.7
03:20 1018 30.06 847 25.01 8.9 48 86 6.6 43.9
03:25 1018 30.06 847 25.01 8.9 48 86 6.7 44
03:30 1018 30.06 847 25.01 8.8 47.9 87 6.7 44.1
03:35 1018 30.06 847 25.01 8.9 48 86 6.8 44.2
03:40 1018 30.06 847 25.01 9 48.1 86 6.8 44.2
03:45 1018 30.06 847 25.01 9 48.2 86 6.8 44.2
03:50 1017 30.03 847 25.01 9 48.3 86 6.8 44.3
03:55 1018 30.06 847 25.01 9.1 48.4 87 7 44.6
04:00 1018 30.06 847 25.01 9.1 48.4 86 6.9 44.5
04:05 1018 30.06 847 25.01 9.1 48.3 86 6.9 44.4
04:10 1018 30.06 847 25.01 9.1 48.3 86 6.8 44.3
04:15 1018 30.06 847 25.01 9.1 48.4 86 6.8 44.3
04:20 1018 30.06 847 25.01 9.2 48.5 85 6.8 44.3
04:25 1018 30.06 847 25.01 9.2 48.5 86 6.9 44.4
04:30 1018 30.06 847 25.01 9.1 48.5 85 6.8 44.3
04:35 1018 30.06 847 25.01 9.1 48.3 85 6.8 44.2
04:40 1017 30.03 847 25.01 9.1 48.3 85 6.7 44
04:45 1017 30.03 847 25.01 9 48.2 85 6.6 43.9
04:50 1017 30.03 847 25.01 9 48.2 85 6.6 43.9
04:55 1017 30.03 846 24.98 8.8 47.8 86 6.6 43.8
05:00 1017 30.03 846 24.98 8.5 47.3 87 6.4 43.5
05:05 1017 30.03 846 24.98 8.3 47 86 6.2 43.1
05:10 1017 30.03 846 24.98 8.2 46.8 86 6 42.8
05:15 1017 30.03 846 24.98 8.1 46.5 86 5.9 42.6
05:20 1017 30.03 846 24.98 8.1 46.5 87 6 42.7
05:25 1017 30.03 846 24.98 7.9 46.3 87 5.9 42.6
05:30 1017 30.03 846 24.98 7.9 46.1 87 5.8 42.4
05:35 1017 30.03 846 24.98 7.8 46.1 87 5.7 42.3
05:40 1017 30.03 846 24.98 7.9 46.2 86 5.7 42.3
05:45 1017 30.03 846 24.98 7.9 46.2 86 5.8 42.4
05:50 1017 30.03 846 24.98 7.9 46.2 86 5.7 42.3
05:55 1017 30.03 846 24.98 7.9 46.3 86 5.7 42.3
06:00 1017 30.03 846 24.98 7.9 46.3 86 5.8 42.4
06:05 1017 30.03 846 24.98 7.9 46.2 86 5.8 42.4
06:10 1017 30.03 846 24.98 8 46.3 86 5.7 42.3
06:15 1017 30.03 846 24.98 8.2 46.7 86 6 42.8
06:20 1017 30.03 846 24.98 8.4 47.1 85 6 42.8
06:25 1017 30.03 846 24.98 8.5 47.4 84 6 42.8
06:30 1017 30.03 847 25.01 8.7 47.6 83 6 42.9
06:35 1017 30.03 846 24.98 8.8 47.8 82 6 42.7
06:40 1017 30.03 847 25.01 8.8 47.9 82 6 42.8
06:45 1017 30.03 847 25.01 8.8 47.9 82 6 42.8
06:50 1017 30.03 847 25.01 8.8 47.9 82 5.8 42.5
06:55 1017 30.03 847 25.01 8.9 47.9 81 5.8 42.4
07:00 1017 30.03 847 25.01 9 48.1 81 5.9 42.6
07:05 1017 30.03 847 25.01 9 48.1 81 6 42.7
07:10 1017 30.03 847 25.01 9 48.1 81 6 42.8
07:15 1017 30.03 847 25.01 9 48.2 81 5.9 42.7
07:20 1017 30.03 847 25.01 9.1 48.3 81 6.1 43
07:25 1017 30.03 847 25.01 9.3 48.7 81 6.1 43.1
07:30 1017 30.03 846 24.98 9.5 49.1 79 6.1 43
07:35 1017 30.03 847 25.01 9.6 49.3 78 6.1 42.9
07:40 1017 30.03 847 25.01 9.7 49.4 78 6 42.8
07:45 1017 30.03 847 25.01 9.8 49.7 77 6 42.9
07:50 1017 30.03 847 25.01 10 50 77 6.2 43.1
07:55 1017 30.03 847 25.01 10.7 51.2 74 6.3 43.3
08:00 1017 30.03 847 25.01 10.9 51.7 73 6.3 43.4
08:05 1017 30.03 847 25.01 10.5 50.9 74 6.1 42.9
08:10 1018 30.06 847 25.01 10.6 51 75 6.4 43.5
08:15 1017 30.03 847 25.01 10.1 50.2 77 6.3 43.3
08:20 1017 30.03 847 25.01 10.2 50.3 78 6.6 43.8
08:25 1017 30.03 847 25.01 11.1 51.9 72 6.2 43.1
08:30 1017 30.03 846 24.98 10.9 51.6 74 6.5 43.7
08:35 1017 30.03 846 24.98 11.1 51.9 73 6.5 43.7
08:40 1017 30.03 847 25.01 11.5 52.7 67 5.7 42.3
08:45 1017 30.03 847 25.01 12.2 53.9 63 5.3 41.6
08:50 1017 30.03 847 25.01 12 53.6 61 4.7 40.4
08:55 1017 30.03 847 25.01 11.6 52.8 66 5.5 41.9
09:00 1017 30.03 847 25.01 11.5 52.6 64 4.8 40.7
09:05 1017 30.03 847 25.01 11.8 53.2 60 4.3 39.8
09:10 1017 30.03 846 24.98 12.2 53.9 61 4.9 40.7
09:15 1017 30.03 846 24.98 12.2 53.9 60 4.8 40.6
09:20 1017 30.03 846 24.98 12 53.5 60 4.5 40
09:25 1017 30.03 846 24.98 12.3 54.1 57 4.1 39.4
09:30 1017 30.03 846 24.98 12.4 54.4 58 4.4 39.9
09:35 1017 30.03 846 24.98 12.5 54.5 56 4 39.3
09:40 1017 30.03 846 24.98 12.6 54.8 57 4.4 39.9
09:45 1017 30.03 846 24.98 12.8 55.1 55 4.2 39.5
09:50 1017 30.03 846 24.98 12.7 54.8 54 3.6 38.4
09:55 1017 30.03 846 24.98 13.1 55.5 52 3.4 38.1
10:00 1016 30 846 24.98 12.6 54.8 53 3.4 38.1
10:05 1016 30 846 24.98 13.5 56.3 50 3.2 37.8
10:10 1016 30 846 24.98 14.2 57.5 48 3.6 38.4
10:15 1016 30 845 24.95 14.8 58.6 49 4.3 39.8
10:20 1016 30 845 24.95 14.4 57.9 50 4.1 39.3
10:25 1016 30 845 24.95 14.2 57.5 50 4 39.1
10:30 1016 30 845 24.95 14.8 58.7 48 3.9 39.1
10:35 1016 30 845 24.95 14.3 57.7 52 4.7 40.5
10:40 1016 30 846 24.98 13.3 55.9 53 3.9 39
10:45 1016 30 846 24.98 12.9 55.3 52 3.5 38.3
10:50 1016 30 846 24.98 12.5 54.6 52 3.1 37.7
10:55 1016 30 846 24.98 13.7 56.6 48 2.8 37.1
11:00 1016 30 846 24.98 14.2 57.5 49 3.6 38.5
11:05 1016 30 845 24.95 13.7 56.7 49 3.4 38.1
11:10 1016 30 845 24.95 14 57.3 48 3.4 38.1
11:15 1016 30 845 24.95 15.1 59.1 45 3.4 38
11:20 1016 30 845 24.95 15.9 60.6 43 3.6 38.4
11:25 1016 30 845 24.95 15.3 59.6 42 2.7 36.8
11:30 1016 30 845 24.95 15.5 60 43 3.2 37.7
11:35 1016 30 845 24.95 15.3 59.6 45 3.7 38.7
11:40 1016 30 845 24.95 14.5 58.1 48 3.7 38.6
11:45 1016 30 845 24.95 14.1 57.4 46 2.9 37.1
11:50 1016 30 845 24.95 15.1 59.3 46 3.8 38.8
11:55 1016 30 845 24.95 14.6 58.3 45 2.9 37.2
12:00 1016 30 845 24.95 15.3 59.5 45 3.5 38.4
12:05 1016 30 845 24.95 15.8 60.4 41 2.8 37
12:10 1016 30 845 24.95 16.2 61.1 40 2.7 36.9
12:15 1016 30 845 24.95 16.3 61.4 40 2.8 37
12:20 1016 30 845 24.95 16.3 61.3 40 2.8 37
12:25 1016 30 845 24.95 16.5 61.8 40 2.9 37.2
12:30 1016 30 845 24.95 15.7 60.3 43 3.1 37.6
12:35 1015 29.97 845 24.95 16.1 61 41 2.9 37.2
12:40 1015 29.97 845 24.95 16.3 61.3 42 3.5 38.2
12:45 1015 29.97 844 24.92 16.6 61.8 42 3.5 38.4
12:50 1015 29.97 844 24.92 16.3 61.3 42 3.5 38.2
12:55 1015 29.97 844 24.92 16.3 61.3 42 3.3 37.9
13:00 1015 29.97 844 24.92 16.6 61.8 40 3.1 37.6
13:05 1015 29.97 844 24.92 16.3 61.4 41 3.2 37.7
13:10 1015 29.97 844 24.92 16.5 61.6 41 3.3 38
13:15 1015 29.97 844 24.92 16.6 61.9 39 2.7 36.8
13:20 1015 29.97 844 24.92 16.3 61.4 40 2.7 36.8
13:25 1015 29.97 844 24.92 16.7 62 39 2.8 37
13:30 1015 29.97 844 24.92 16.9 62.5 38 2.8 37
13:35 1015 29.97 844 24.92 16.3 61.3 40 2.7 36.9
13:40 1014 29.94 844 24.92 16.5 61.8 38 2.2 35.9
13:45 1014 29.94 844 24.92 17.1 62.8 38 3 37.3
13:50 1014 29.94 844 24.92 17 62.7 38 2.6 36.7
13:55 1014 29.94 844 24.92 16.5 61.6 41 3.2 37.7
14:00 1014 29.94 844 24.92 16.3 61.3 40 2.7 36.8
14:05 1014 29.94 843 24.89 16.5 61.6 36 1.6 35
14:10 1014 29.94 843 24.89 16.8 62.2 36 1.6 34.8
14:15 1014 29.94 843 24.89 17 62.6 37 2.2 35.9
14:20 1014 29.94 843 24.89 17 62.7 35 1.6 35
14:25 1014 29.94 843 24.89 16.6 61.9 37 1.8 35.3
14:30 1014 29.94 843 24.89 17.5 63.4 35 1.9 35.4
14:35 1014 29.94 843 24.89 17.7 63.9 34 2 35.5
14:40 1014 29.94 843 24.89 17.3 63.1 34 1.4 34.6
14:45 1014 29.94 843 24.89 18.3 64.9 32 1.6 34.8
14:50 1014 29.94 843 24.89 18.8 65.8 31 1.5 34.6
14:55 1014 29.94 843 24.89 18.9 66 31 1.6 34.9
15:00 1014 29.94 843 24.89 18.9 66 31 1.7 35.1
15:05 1014 29.94 843 24.89 17.9 64.2 33 1.6 34.8
15:10 1013 29.91 843 24.89 17.6 63.6 32 0.6 33.1
15:15 1013 29.91 843 24.89 17.6 63.8 32 0.7 33.3
15:20 1013 29.91 842 24.86 18.2 64.7 31 0.7 33.3
15:25 1013 29.91 842 24.86 18.3 65 31 0.9 33.6
15:30 1013 29.91 842 24.86 18.5 65.3 31 1.2 34.2
15:35 1013 29.91 842 24.86 18.7 65.6 30 1.1 34
15:40 1013 29.91 842 24.86 18.6 65.4 32 1.7 35
15:45 1013 29.91 842 24.86 17.8 64 33 1.2 34.2
15:50 1012 29.88 842 24.86 18 64.4 31 0.6 33.1
15:55 1012 29.88 842 24.86 18.1 64.5 30 0.4 32.7
16:00 1012 29.88 841 24.83 18.5 65.2 30 0.7 33.2
16:05 1012 29.88 841 24.83 18.5 65.3 29 0.5 32.8
16:10 1012 29.88 841 24.83 18.5 65.4 30 0.6 33.1
16:15 1012 29.88 841 24.83 19.2 66.5 28 0.5 32.9
16:20 1012 29.88 841 24.83 19.8 67.6 27 0.5 32.9
16:25 1012 29.88 841 24.83 19.2 66.5 27 -0.1 31.8
16:30 1012 29.88 841 24.83 18.9 66 25 -1.3 29.7
16:35 1012 29.88 841 24.83 19 66.2 27 -0.4 31.2
16:40 1012 29.88 841 24.83 19 66.3 26 -1 30.3
16:45 1012 29.88 841 24.83 19 66.2 28 0.1 32.1
16:50 1011 29.85 841 24.83 18.7 65.6 26 -0.8 30.5
16:55 1011 29.85 841 24.83 18.1 64.5 28 -0.5 31
17:00 1012 29.88 841 24.83 17.8 64.1 28 -0.7 30.7
17:05 1012 29.88 841 24.83 17.6 63.6 28 -1.2 29.8
17:10 1012 29.88 841 24.83 17.5 63.4 27 -1.5 29.4
17:15 1012 29.88 841 24.83 17.5 63.4 27 -1.4 29.5
17:20 1012 29.88 841 24.83 17.2 62.9 28 -1.6 29.1
17:25 1012 29.88 841 24.83 16.5 61.7 42 3.8 38.9
17:30 1012 29.88 841 24.83 14.9 58.8 51 4.8 40.7
17:35 1012 29.88 841 24.83 14.4 57.9 43 2.1 35.7
17:40 1013 29.91 842 24.86 13.8 56.9 58 5.8 42.5
17:45 1013 29.91 842 24.86 13.2 55.8 61 5.8 42.5
17:50 1012 29.88 842 24.86 12.9 55.3 57 4.6 40.4
17:55 1012 29.88 841 24.83 12.8 55.1 55 4 39.1
18:00 1012 29.88 842 24.86 12.8 55.1 56 4.4 39.9
18:05 1012 29.88 842 24.86 13 55.4 55 4.3 39.8
18:10 1013 29.91 842 24.86 13 55.5 49 2.7 36.9
18:15 1013 29.91 842 24.86 12.9 55.2 50 2.9 37.2
18:20 1013 29.91 842 24.86 12.9 55.2 52 3.3 37.9
18:25 1013 29.91 842 24.86 12.9 55.3 63 6.1 43
18:30 1013 29.91 843 24.89 12 53.6 68 6.4 43.6
18:35 1013 29.91 843 24.89 11.1 52 73 6.4 43.6
18:40 1013 29.91 843 24.89 10.5 50.9 74 6 42.8
18:45 1013 29.91 843 24.89 10.2 50.3 73 5.6 42
18:50 1014 29.94 843 24.89 10 50 74 5.6 42.1
18:55 1014 29.94 843 24.89 9.9 49.8 74 5.6 42.1
19:00 1014 29.94 843 24.89 9.9 49.8 76 5.8 42.5
19:05 1014 29.94 843 24.89 9.9 49.7 75 5.7 42.3
19:10 1014 29.94 843 24.89 9.8 49.7 77 6 42.8
19:15 1014 29.94 843 24.89 9.6 49.3 79 6.2 43.1
19:20 1014 29.94 843 24.89 9.5 49 81 6.3 43.4
19:25 1014 29.94 843 24.89 9.2 48.6 82 6.3 43.3
19:30 1014 29.94 843 24.89 9.1 48.3 83 6.4 43.4
19:35 1014 29.94 843 24.89 8.9 48 85 6.5 43.7
19:40 1014 29.94 843 24.89 8.8 47.8 86 6.6 43.9
19:45 1014 29.94 844 24.92 8.8 47.9 87 6.8 44.3
19:50 1014 29.94 843 24.89 8.8 47.8 87 6.8 44.2
19:55 1014 29.94 843 24.89 8.7 47.6 87 6.7 44.1
20:00 1014 29.94 843 24.89 8.5 47.2 87 6.5 43.6
20:05 1014 29.94 843 24.89 8.1 46.7 88 6.2 43.2
20:10 1014 29.94 843 24.89 8 46.4 88 6.1 43
20:15 1014 29.94 843 24.89 7.8 46.1 88 6 42.8
20:20 1014 29.94 843 24.89 7.8 46 88 5.9 42.6
20:25 1014 29.94 843 24.89 7.7 45.9 88 5.8 42.5
20:30 1014 29.94 843 24.89 7.7 45.8 88 5.8 42.5
20:35 1014 29.94 844 24.92 7.7 45.9 88 5.9 42.6
20:40 1014 29.94 844 24.92 7.7 45.8 88 5.8 42.5
20:45 1014 29.94 843 24.89 7.7 45.9 88 5.9 42.5
20:50 1014 29.94 843 24.89 7.8 46 88 5.9 42.6
20:55 1014 29.94 843 24.89 7.7 45.9 87 5.8 42.4
21:00 1014 29.94 843 24.89 7.6 45.7 87 5.5 42
21:05 1014 29.94 843 24.89 7.4 45.4 86 5.2 41.4
21:10 1014 29.94 843 24.89 7.3 45.1 85 5 40.9
21:15 1014 29.94 843 24.89 7.2 45 85 4.9 40.8
21:20 1014 29.94 843 24.89 7.2 44.9 85 4.9 40.8
21:25 1014 29.94 843 24.89 7.1 44.9 85 4.8 40.7
21:30 1014 29.94 843 24.89 7.1 44.8 85 4.8 40.6
21:35 1014 29.94 843 24.89 7.1 44.8 85 4.8 40.6
21:40 1014 29.94 843 24.89 7.1 44.8 86 4.8 40.7
21:45 1014 29.94 843 24.89 7.1 44.7 85 4.8 40.6
21:50 1014 29.94 843 24.89 7 44.7 86 4.9 40.8
21:55 1014 29.94 843 24.89 7.1 44.8 86 4.9 40.9
22:00 1014 29.94 843 24.89 7.1 44.7 87 5 41
22:05 1014 29.94 843 24.89 7.1 44.8 86 4.9 40.9
22:10 1014 29.94 843 24.89 7.2 44.9 87 5.1 41.1
22:15 1014 29.94 843 24.89 7.2 45 87 5.2 41.3
22:20 1014 29.94 843 24.89 7.2 45 86 5 41
22:25 1014 29.94 843 24.89 7.1 44.8 86 5 40.9
22:30 1014 29.94 843 24.89 7.1 44.8 86 5 41
22:35 1014 29.94 843 24.89 7.1 44.8 86 4.9 40.8
22:40 1014 29.94 843 24.89 7 44.6 86 4.8 40.7
22:45 1014 29.94 843 24.89 6.9 44.5 86 4.7 40.5
22:50 1014 29.94 843 24.89 6.8 44.3 85 4.5 40
22:55 1014 29.94 843 24.89 6.7 44.1 86 4.6 40.2
23:00 1014 29.94 843 24.89 6.8 44.3 86 4.6 40.4
23:05 1014 29.94 843 24.89 6.9 44.4 84 4.4 40
23:10 1014 29.94 843 24.89 6.8 44.3 85 4.4 40
23:15 1014 29.94 843 24.89 6.8 44.2 85 4.4 39.9
23:20 1014 29.94 843 24.89 6.6 43.9 85 4.4 39.9
23:25 1014 29.94 844 24.92 6.5 43.7 86 4.4 39.8
23:30 1014 29.94 844 24.92 6.5 43.7 86 4.3 39.8
23:35 1014 29.94 843 24.89 6.6 43.8 87 4.5 40.1
23:40 1014 29.94 843 24.89 6.7 44 86 4.4 40
23:45 1014 29.94 843 24.89 6.7 44 86 4.5 40
23:50 1014 29.94 844 24.92 6.7 44 87 4.6 40.4
23:55 1014 29.94 843 24.89 6.8 44.2 87 4.8 40.6
24:00 1014 29.94 843 24.89 6.7 44 88 4.9 40.8